OOCL Oakland — 3EKJ6 — position and weather

sailwx.info

Track history (hours):
 
Tides and Currents Weather Stations Pressure Air Temp Water Temp Dewpoint Dewpoint Depression Visibility Wind Speed Wind Dir Waves Ship Positions

OOCL Oakland

Last reported at 2017-Mar-20 20:25 UTC. Time now 2017-Mar-24 08:12 UTC.
Position S 26°42' E 153°12'.

Length 280 m; draft 11.6 m.

Type: Ship. MMSI: 372703235.

Date/timePositionNaut miles runAvg speedWind from/ knotsBaromVisibWave heightAir tempDewpointWater temp
2017-Mar-20 20:25S 26°42' E 153°12'1012.0
2017-Mar-20 19:33S 26°52' E 153°10'1515.4
2017-Mar-20 18:33S 27°06' E 153°19'1413.6
2017-Mar-20 17:34S 27°18' E 153°13'4 4.0
2017-Mar-20 16:31S 27°22' E 153°11'0 0.0
2017-Mar-20 15:31S 27°22' E 153°11'0 0.0
2017-Mar-20 14:25S 27°22' E 153°11'0 0.0
2017-Mar-20 13:31S 27°22' E 153°11'0 0.0
2017-Mar-20 12:31S 27°22' E 153°11'0 0.0
2017-Mar-20 11:31S 27°22' E 153°11'0 0.0
2017-Mar-20 10:28S 27°22' E 153°11'0 0.0
2017-Mar-20 09:31S 27°22' E 153°11'0 0.0
2017-Mar-20 08:31S 27°22' E 153°11'0 0.0
2017-Mar-20 07:31S 27°22' E 153°11'0 0.0
2017-Mar-20 06:31S 27°22' E 153°11'0 0.0
2017-Mar-20 05:31S 27°22' E 153°11'0 0.0
2017-Mar-20 04:31S 27°22' E 153°11'0 0.0
2017-Mar-20 03:31S 27°22' E 153°11'0 0.0
2017-Mar-20 02:31S 27°22' E 153°11'0 0.0
2017-Mar-20 01:31S 27°22' E 153°11'0 0.0
2017-Mar-20 00:31S 27°22' E 153°11'0 0.0
2017-Mar-19 23:31S 27°22' E 153°11'0 0.0
2017-Mar-19 22:31S 27°22' E 153°11'0 0.0
2017-Mar-19 21:31S 27°22' E 153°11'0 0.0
2017-Mar-19 20:31S 27°22' E 153°11'0 0.0
2017-Mar-19 19:31S 27°22' E 153°11'0 0.0
2017-Mar-19 18:31S 27°22' E 153°11'0 0.0
2017-Mar-19 17:31S 27°22' E 153°11'0 0.0
2017-Mar-19 16:31S 27°22' E 153°11'0 0.0
2017-Mar-19 15:31S 27°22' E 153°11'0 0.0
2017-Mar-19 14:31S 27°22' E 153°11'0 0.0
2017-Mar-19 13:31S 27°22' E 153°11'2 1.8
2017-Mar-19 12:33S 27°20' E 153°12'1313.2
2017-Mar-19 11:34S 27°10' E 153°21'1615.5
2017-Mar-19 10:33S 26°56' E 153°12'1312.7
2017-Mar-19 09:33S 26°44' E 153°11'5 5.2
2017-Mar-19 08:33S 26°41' E 153°16'1312.7
2017-Mar-19 07:33S 26°50' E 153°27'1313.3
2017-Mar-19 06:34S 27°00' E 153°37'1616.4
2017-Mar-19 05:33S 27°16' E 153°40'1616.1
2017-Mar-19 04:34S 27°32' E 153°40'1615.8
2017-Mar-19 03:34S 27°48' E 153°41'1616.0
2017-Mar-19 02:33S 28°04' E 153°45'27118.1
2017-Mar-18 11:33S 32°29' E 152°39'1818.3
2017-Mar-18 10:34S 32°45' E 152°30'1919.3
2017-Mar-18 09:34S 33°03' E 152°21'1918.6
2017-Mar-18 08:33S 33°20' E 152°12'44511.3
2017-Mar-16 17:10S 37°49' E 144°55'0 0.0
2017-Mar-16 16:31S 37°49' E 144°55'0 0.0
2017-Mar-16 15:31S 37°49' E 144°55'0 0.0
2017-Mar-16 13:31S 37°49' E 144°55'0 0.0
2017-Mar-16 12:31S 37°49' E 144°55'0 0.0
2017-Mar-16 11:31S 37°49' E 144°55'  
2017-Mar-10 21:21S 33°13' E 151°58'1518.5
2017-Mar-10 20:33S 33°02' E 152°10'  
Track history (hours):
 
Tides and Currents Weather Stations Pressure Air Temp Water Temp Dewpoint Dewpoint Depression Visibility Wind Speed Wind Dir Waves Ship Positions

OOCL Oakland

Last reported at 2017-Mar-20 20:25 UTC. Time now 2017-Mar-24 08:12 UTC.
Position S 26°42' E 153°12'.

Length 280 m; draft 11.6 m.

Type: Ship. MMSI: 372703235.

Date/timePositionNaut miles runAvg speedWind from/ knotsBaromVisibWave heightAir tempDewpointWater temp
2017-Mar-20 20:25S 26°42' E 153°12'1012.0
2017-Mar-20 19:33S 26°52' E 153°10'1515.4
2017-Mar-20 18:33S 27°06' E 153°19'1413.6
2017-Mar-20 17:34S 27°18' E 153°13'4 4.0
2017-Mar-20 16:31S 27°22' E 153°11'0 0.0
2017-Mar-20 15:31S 27°22' E 153°11'0 0.0
2017-Mar-20 14:25S 27°22' E 153°11'0 0.0
2017-Mar-20 13:31S 27°22' E 153°11'0 0.0
2017-Mar-20 12:31S 27°22' E 153°11'0 0.0
2017-Mar-20 11:31S 27°22' E 153°11'0 0.0
2017-Mar-20 10:28S 27°22' E 153°11'0 0.0
2017-Mar-20 09:31S 27°22' E 153°11'0 0.0
2017-Mar-20 08:31S 27°22' E 153°11'0 0.0
2017-Mar-20 07:31S 27°22' E 153°11'0 0.0
2017-Mar-20 06:31S 27°22' E 153°11'0 0.0
2017-Mar-20 05:31S 27°22' E 153°11'0 0.0
2017-Mar-20 04:31S 27°22' E 153°11'0 0.0
2017-Mar-20 03:31S 27°22' E 153°11'0 0.0
2017-Mar-20 02:31S 27°22' E 153°11'0 0.0
2017-Mar-20 01:31S 27°22' E 153°11'0 0.0
2017-Mar-20 00:31S 27°22' E 153°11'0 0.0
2017-Mar-19 23:31S 27°22' E 153°11'0 0.0
2017-Mar-19 22:31S 27°22' E 153°11'0 0.0
2017-Mar-19 21:31S 27°22' E 153°11'0 0.0
2017-Mar-19 20:31S 27°22' E 153°11'0 0.0
2017-Mar-19 19:31S 27°22' E 153°11'0 0.0
2017-Mar-19 18:31S 27°22' E 153°11'0 0.0
2017-Mar-19 17:31S 27°22' E 153°11'0 0.0
2017-Mar-19 16:31S 27°22' E 153°11'0 0.0
2017-Mar-19 15:31S 27°22' E 153°11'0 0.0
2017-Mar-19 14:31S 27°22' E 153°11'0 0.0
2017-Mar-19 13:31S 27°22' E 153°11'2 1.8
2017-Mar-19 12:33S 27°20' E 153°12'1313.2
2017-Mar-19 11:34S 27°10' E 153°21'1615.5
2017-Mar-19 10:33S 26°56' E 153°12'1312.7
2017-Mar-19 09:33S 26°44' E 153°11'5 5.2
2017-Mar-19 08:33S 26°41' E 153°16'1312.7
2017-Mar-19 07:33S 26°50' E 153°27'1313.3
2017-Mar-19 06:34S 27°00' E 153°37'1616.4
2017-Mar-19 05:33S 27°16' E 153°40'1616.1
2017-Mar-19 04:34S 27°32' E 153°40'1615.8
2017-Mar-19 03:34S 27°48' E 153°41'1616.0
2017-Mar-19 02:33S 28°04' E 153°45'27118.1
2017-Mar-18 11:33S 32°29' E 152°39'1818.3
2017-Mar-18 10:34S 32°45' E 152°30'1919.3
2017-Mar-18 09:34S 33°03' E 152°21'1918.6
2017-Mar-18 08:33S 33°20' E 152°12'44511.3
2017-Mar-16 17:10S 37°49' E 144°55'0 0.0
2017-Mar-16 16:31S 37°49' E 144°55'0 0.0
2017-Mar-16 15:31S 37°49' E 144°55'0 0.0
2017-Mar-16 13:31S 37°49' E 144°55'0 0.0
2017-Mar-16 12:31S 37°49' E 144°55'0 0.0
2017-Mar-16 11:31S 37°49' E 144°55'  
2017-Mar-10 21:21S 33°13' E 151°58'1518.5
2017-Mar-10 20:33S 33°02' E 152°10'  

Dump ship's entire track history